sensor_id;sensor_type;location;lat;lon;timestamp;temperature;humidity
25871;DHT22;13689;48.590;7.752;2022-09-13T00:00:47;19.40;62.50
25871;DHT22;13689;48.590;7.752;2022-09-13T00:03:13;19.40;62.90
25871;DHT22;13689;48.590;7.752;2022-09-13T00:05:38;19.30;63.10
25871;DHT22;13689;48.590;7.752;2022-09-13T00:08:04;19.30;63.50
25871;DHT22;13689;48.590;7.752;2022-09-13T00:10:30;19.30;63.70
25871;DHT22;13689;48.590;7.752;2022-09-13T00:12:57;19.30;63.60
25871;DHT22;13689;48.590;7.752;2022-09-13T00:15:22;19.30;63.60
25871;DHT22;13689;48.590;7.752;2022-09-13T00:17:48;19.30;63.70
25871;DHT22;13689;48.590;7.752;2022-09-13T00:20:13;19.30;63.70
25871;DHT22;13689;48.590;7.752;2022-09-13T00:22:39;19.30;63.70
25871;DHT22;13689;48.590;7.752;2022-09-13T00:25:05;19.40;63.80
25871;DHT22;13689;48.590;7.752;2022-09-13T00:27:31;19.40;63.80
25871;DHT22;13689;48.590;7.752;2022-09-13T00:29:57;19.40;63.80
25871;DHT22;13689;48.590;7.752;2022-09-13T00:32:22;19.30;63.90
25871;DHT22;13689;48.590;7.752;2022-09-13T00:34:48;19.30;64.10
25871;DHT22;13689;48.590;7.752;2022-09-13T00:37:13;19.30;64.10
25871;DHT22;13689;48.590;7.752;2022-09-13T00:39:39;19.30;64.20
25871;DHT22;13689;48.590;7.752;2022-09-13T00:42:08;19.30;64.40
25871;DHT22;13689;48.590;7.752;2022-09-13T00:47:23;19.10;64.90
25871;DHT22;13689;48.590;7.752;2022-09-13T00:49:51;19.10;65.10
25871;DHT22;13689;48.590;7.752;2022-09-13T00:52:19;19.10;65.10
25871;DHT22;13689;48.590;7.752;2022-09-13T00:54:50;19.10;65.20
25871;DHT22;13689;48.590;7.752;2022-09-13T00:57:17;19.10;65.30
25871;DHT22;13689;48.590;7.752;2022-09-13T00:59:52;19.10;65.40
25871;DHT22;13689;48.590;7.752;2022-09-13T01:02:20;19.00;65.70
25871;DHT22;13689;48.590;7.752;2022-09-13T01:04:46;18.90;65.90
25871;DHT22;13689;48.590;7.752;2022-09-13T01:07:12;18.90;66.10
25871;DHT22;13689;48.590;7.752;2022-09-13T01:09:39;18.90;66.10
25871;DHT22;13689;48.590;7.752;2022-09-13T01:12:12;18.90;66.20
25871;DHT22;13689;48.590;7.752;2022-09-13T01:14:40;18.90;66.20
25871;DHT22;13689;48.590;7.752;2022-09-13T01:17:06;18.90;66.30
25871;DHT22;13689;48.590;7.752;2022-09-13T01:19:32;18.80;66.50
25871;DHT22;13689;48.590;7.752;2022-09-13T01:22:05;18.80;66.70
25871;DHT22;13689;48.590;7.752;2022-09-13T01:32:09;18.80;66.70
25871;DHT22;13689;48.590;7.752;2022-09-13T01:34:50;18.80;66.70
25871;DHT22;13689;48.590;7.752;2022-09-13T01:44:58;18.80;66.60
25871;DHT22;13689;48.590;7.752;2022-09-13T01:52:34;18.70;66.90
25871;DHT22;13689;48.590;7.752;2022-09-13T01:55:11;18.70;66.90
25871;DHT22;13689;48.590;7.752;2022-09-13T02:00:16;18.60;67.00
25871;DHT22;13689;48.590;7.752;2022-09-13T02:05:16;18.60;67.00
25871;DHT22;13689;48.590;7.752;2022-09-13T02:07:45;18.60;67.00
25871;DHT22;13689;48.590;7.752;2022-09-13T02:10:16;18.60;67.00
25871;DHT22;13689;48.590;7.752;2022-09-13T02:12:46;18.50;67.10
25871;DHT22;13689;48.590;7.752;2022-09-13T02:15:16;18.50;67.10
25871;DHT22;13689;48.590;7.752;2022-09-13T02:17:42;18.50;67.10
25871;DHT22;13689;48.590;7.752;2022-09-13T02:20:22;18.50;67.10
25871;DHT22;13689;48.590;7.752;2022-09-13T02:22:51;18.50;67.10
25871;DHT22;13689;48.590;7.752;2022-09-13T02:25:18;18.50;67.10
25871;DHT22;13689;48.590;7.752;2022-09-13T02:27:47;18.40;67.10
25871;DHT22;13689;48.590;7.752;2022-09-13T02:30:14;18.40;67.10
25871;DHT22;13689;48.590;7.752;2022-09-13T02:32:51;18.40;67.20
25871;DHT22;13689;48.590;7.752;2022-09-13T02:37:46;18.40;67.20
25871;DHT22;13689;48.590;7.752;2022-09-13T02:40:14;18.40;67.30
25871;DHT22;13689;48.590;7.752;2022-09-13T02:42:42;18.40;67.30
25871;DHT22;13689;48.590;7.752;2022-09-13T02:45:10;18.30;67.40
25871;DHT22;13689;48.590;7.752;2022-09-13T02:47:39;18.30;67.50
25871;DHT22;13689;48.590;7.752;2022-09-13T02:50:09;18.30;68.40
25871;DHT22;13689;48.590;7.752;2022-09-13T02:52:49;18.20;67.70
25871;DHT22;13689;48.590;7.752;2022-09-13T02:57:47;18.20;68.00
25871;DHT22;13689;48.590;7.752;2022-09-13T03:00:15;18.20;67.90
25871;DHT22;13689;48.590;7.752;2022-09-13T03:02:41;18.20;68.00
25871;DHT22;13689;48.590;7.752;2022-09-13T03:05:07;18.20;68.00
25871;DHT22;13689;48.590;7.752;2022-09-13T03:07:32;18.10;68.10
25871;DHT22;13689;48.590;7.752;2022-09-13T03:09:59;18.00;68.30
25871;DHT22;13689;48.590;7.752;2022-09-13T03:17:52;18.00;68.70
25871;DHT22;13689;48.590;7.752;2022-09-13T03:31:00;18.00;68.80
25871;DHT22;13689;48.590;7.752;2022-09-13T03:33:30;18.10;68.60
25871;DHT22;13689;48.590;7.752;2022-09-13T03:38:38;18.20;68.30
25871;DHT22;13689;48.590;7.752;2022-09-13T03:41:07;18.20;68.30
25871;DHT22;13689;48.590;7.752;2022-09-13T03:43:49;18.20;68.20
25871;DHT22;13689;48.590;7.752;2022-09-13T03:48:41;18.10;68.40
25871;DHT22;13689;48.590;7.752;2022-09-13T03:51:07;18.10;68.50
25871;DHT22;13689;48.590;7.752;2022-09-13T03:53:38;18.10;68.70
25871;DHT22;13689;48.590;7.752;2022-09-13T03:56:14;18.10;68.70
25871;DHT22;13689;48.590;7.752;2022-09-13T03:58:41;18.00;68.80
25871;DHT22;13689;48.590;7.752;2022-09-13T04:01:07;18.00;69.00
25871;DHT22;13689;48.590;7.752;2022-09-13T04:03:35;18.00;69.30
25871;DHT22;13689;48.590;7.752;2022-09-13T04:06:00;18.00;69.30
25871;DHT22;13689;48.590;7.752;2022-09-13T04:08:26;17.90;69.40
25871;DHT22;13689;48.590;7.752;2022-09-13T04:10:51;17.90;69.50
25871;DHT22;13689;48.590;7.752;2022-09-13T04:13:17;17.90;69.60
25871;DHT22;13689;48.590;7.752;2022-09-13T04:15:43;17.90;69.70
25871;DHT22;13689;48.590;7.752;2022-09-13T04:18:08;17.90;69.70
25871;DHT22;13689;48.590;7.752;2022-09-13T04:20:35;17.90;69.80
25871;DHT22;13689;48.590;7.752;2022-09-13T04:23:00;17.90;69.80
25871;DHT22;13689;48.590;7.752;2022-09-13T04:25:26;17.90;69.80
25871;DHT22;13689;48.590;7.752;2022-09-13T04:27:55;17.90;69.80
25871;DHT22;13689;48.590;7.752;2022-09-13T04:30:22;17.90;69.80
25871;DHT22;13689;48.590;7.752;2022-09-13T04:32:47;17.80;69.70
25871;DHT22;13689;48.590;7.752;2022-09-13T04:35:13;17.90;69.80
25871;DHT22;13689;48.590;7.752;2022-09-13T04:37:42;17.80;70.00
25871;DHT22;13689;48.590;7.752;2022-09-13T04:40:08;17.80;70.10
25871;DHT22;13689;48.590;7.752;2022-09-13T04:42:34;17.80;70.10
25871;DHT22;13689;48.590;7.752;2022-09-13T04:45:00;17.70;70.10
25871;DHT22;13689;48.590;7.752;2022-09-13T04:47:25;17.70;70.40
25871;DHT22;13689;48.590;7.752;2022-09-13T04:49:51;17.70;70.50
25871;DHT22;13689;48.590;7.752;2022-09-13T04:52:16;17.70;70.60
25871;DHT22;13689;48.590;7.752;2022-09-13T04:54:42;17.60;70.60
25871;DHT22;13689;48.590;7.752;2022-09-13T04:57:07;17.70;70.80
25871;DHT22;13689;48.590;7.752;2022-09-13T04:59:33;17.60;70.70
25871;DHT22;13689;48.590;7.752;2022-09-13T05:01:59;17.60;70.70
25871;DHT22;13689;48.590;7.752;2022-09-13T05:04:24;17.60;70.60
25871;DHT22;13689;48.590;7.752;2022-09-13T05:06:50;17.70;70.60
25871;DHT22;13689;48.590;7.752;2022-09-13T05:09:15;17.70;70.60
25871;DHT22;13689;48.590;7.752;2022-09-13T05:11:41;17.70;70.50
25871;DHT22;13689;48.590;7.752;2022-09-13T05:14:09;17.70;70.50
25871;DHT22;13689;48.590;7.752;2022-09-13T05:16:35;17.70;70.50
25871;DHT22;13689;48.590;7.752;2022-09-13T05:19:01;17.70;70.50
25871;DHT22;13689;48.590;7.752;2022-09-13T05:21:27;17.70;70.40
25871;DHT22;13689;48.590;7.752;2022-09-13T05:23:53;17.80;70.30
25871;DHT22;13689;48.590;7.752;2022-09-13T05:26:19;17.80;70.20
25871;DHT22;13689;48.590;7.752;2022-09-13T05:28:45;17.80;70.10
25871;DHT22;13689;48.590;7.752;2022-09-13T05:31:14;17.90;70.00
25871;DHT22;13689;48.590;7.752;2022-09-13T05:33:40;17.80;70.00
25871;DHT22;13689;48.590;7.752;2022-09-13T05:36:06;17.80;70.00
25871;DHT22;13689;48.590;7.752;2022-09-13T05:38:32;17.80;70.00
25871;DHT22;13689;48.590;7.752;2022-09-13T05:41:35;17.70;69.50
25871;DHT22;13689;48.590;7.752;2022-09-13T05:44:01;17.70;70.20
25871;DHT22;13689;48.590;7.752;2022-09-13T05:46:26;17.70;70.20
25871;DHT22;13689;48.590;7.752;2022-09-13T05:48:52;17.70;70.20
25871;DHT22;13689;48.590;7.752;2022-09-13T05:51:18;17.80;70.00
25871;DHT22;13689;48.590;7.752;2022-09-13T05:53:45;17.80;70.00
25871;DHT22;13689;48.590;7.752;2022-09-13T05:56:12;17.90;69.90
25871;DHT22;13689;48.590;7.752;2022-09-13T05:58:38;17.90;69.80
25871;DHT22;13689;48.590;7.752;2022-09-13T06:01:05;17.90;69.60
25871;DHT22;13689;48.590;7.752;2022-09-13T06:03:30;18.00;69.70
25871;DHT22;13689;48.590;7.752;2022-09-13T06:05:56;18.00;69.40
25871;DHT22;13689;48.590;7.752;2022-09-13T06:08:26;18.10;69.30
25871;DHT22;13689;48.590;7.752;2022-09-13T06:11:03;18.10;69.30
25871;DHT22;13689;48.590;7.752;2022-09-13T06:13:28;18.10;69.10
25871;DHT22;13689;48.590;7.752;2022-09-13T06:15:55;18.20;69.00
25871;DHT22;13689;48.590;7.752;2022-09-13T06:18:20;18.30;68.90
25871;DHT22;13689;48.590;7.752;2022-09-13T06:20:46;18.30;68.80
25871;DHT22;13689;48.590;7.752;2022-09-13T06:23:12;18.40;68.60
25871;DHT22;13689;48.590;7.752;2022-09-13T06:25:37;18.50;68.60
25871;DHT22;13689;48.590;7.752;2022-09-13T06:28:03;18.60;68.30
25871;DHT22;13689;48.590;7.752;2022-09-13T06:30:29;19.10;67.80
25871;DHT22;13689;48.590;7.752;2022-09-13T06:32:55;19.80;66.00
25871;DHT22;13689;48.590;7.752;2022-09-13T06:35:20;20.40;64.10
25871;DHT22;13689;48.590;7.752;2022-09-13T06:37:46;21.00;62.60
25871;DHT22;13689;48.590;7.752;2022-09-13T06:40:11;21.40;61.20
25871;DHT22;13689;48.590;7.752;2022-09-13T06:42:37;22.00;59.90
25871;DHT22;13689;48.590;7.752;2022-09-13T06:45:03;22.50;58.90
25871;DHT22;13689;48.590;7.752;2022-09-13T06:47:29;23.20;57.80
25871;DHT22;13689;48.590;7.752;2022-09-13T06:49:55;23.80;56.60
25871;DHT22;13689;48.590;7.752;2022-09-13T06:52:21;24.30;55.60
25871;DHT22;13689;48.590;7.752;2022-09-13T06:54:47;24.80;54.60
25871;DHT22;13689;48.590;7.752;2022-09-13T06:57:12;25.30;53.70
25871;DHT22;13689;48.590;7.752;2022-09-13T06:59:38;25.70;53.00
25871;DHT22;13689;48.590;7.752;2022-09-13T07:02:03;26.20;52.00
25871;DHT22;13689;48.590;7.752;2022-09-13T07:04:29;26.60;51.40
25871;DHT22;13689;48.590;7.752;2022-09-13T07:06:57;26.90;50.90
25871;DHT22;13689;48.590;7.752;2022-09-13T07:09:24;27.00;50.30
25871;DHT22;13689;48.590;7.752;2022-09-13T07:11:50;26.80;50.70
25871;DHT22;13689;48.590;7.752;2022-09-13T07:14:17;26.50;51.20
25871;DHT22;13689;48.590;7.752;2022-09-13T07:16:43;26.30;51.50
25871;DHT22;13689;48.590;7.752;2022-09-13T07:19:43;26.20;51.40
25871;DHT22;13689;48.590;7.752;2022-09-13T07:22:02;26.20;51.60
25871;DHT22;13689;48.590;7.752;2022-09-13T07:24:29;26.50;51.40
25871;DHT22;13689;48.590;7.752;2022-09-13T07:26:54;26.60;51.20
25871;DHT22;13689;48.590;7.752;2022-09-13T07:29:20;26.90;50.60
25871;DHT22;13689;48.590;7.752;2022-09-13T07:31:48;27.20;49.90
25871;DHT22;13689;48.590;7.752;2022-09-13T07:34:15;27.40;49.60
25871;DHT22;13689;48.590;7.752;2022-09-13T07:36:41;27.50;49.20
25871;DHT22;13689;48.590;7.752;2022-09-13T07:39:07;26.80;50.10
25871;DHT22;13689;48.590;7.752;2022-09-13T07:41:33;25.70;51.90
25871;DHT22;13689;48.590;7.752;2022-09-13T07:43:59;25.00;53.40
25871;DHT22;13689;48.590;7.752;2022-09-13T07:46:26;24.60;54.30
25871;DHT22;13689;48.590;7.752;2022-09-13T07:48:53;24.30;54.80
25871;DHT22;13689;48.590;7.752;2022-09-13T07:51:19;24.70;54.40
25871;DHT22;13689;48.590;7.752;2022-09-13T07:53:45;25.10;53.40
25871;DHT22;13689;48.590;7.752;2022-09-13T07:58:37;25.20;53.00
25871;DHT22;13689;48.590;7.752;2022-09-13T08:03:35;25.00;53.40
25871;DHT22;13689;48.590;7.752;2022-09-13T08:06:01;24.90;53.50
25871;DHT22;13689;48.590;7.752;2022-09-13T08:08:27;25.20;53.30
25871;DHT22;13689;48.590;7.752;2022-09-13T08:11:01;25.90;52.50
25871;DHT22;13689;48.590;7.752;2022-09-13T08:13:27;26.70;51.30
25871;DHT22;13689;48.590;7.752;2022-09-13T08:15:53;27.40;50.00
25871;DHT22;13689;48.590;7.752;2022-09-13T08:18:19;28.00;49.10
25871;DHT22;13689;48.590;7.752;2022-09-13T08:20:45;28.50;48.20
25871;DHT22;13689;48.590;7.752;2022-09-13T08:23:11;29.10;47.50
25871;DHT22;13689;48.590;7.752;2022-09-13T08:25:36;29.70;46.70
25871;DHT22;13689;48.590;7.752;2022-09-13T08:28:07;30.10;45.80
25871;DHT22;13689;48.590;7.752;2022-09-13T08:30:33;30.60;45.30
25871;DHT22;13689;48.590;7.752;2022-09-13T08:33:00;31.10;44.60
25871;DHT22;13689;48.590;7.752;2022-09-13T08:35:27;31.50;44.10
25871;DHT22;13689;48.590;7.752;2022-09-13T08:37:52;31.60;43.50
25871;DHT22;13689;48.590;7.752;2022-09-13T08:40:18;31.90;43.10
25871;DHT22;13689;48.590;7.752;2022-09-13T08:42:49;32.30;43.20
25871;DHT22;13689;48.590;7.752;2022-09-13T08:45:15;32.60;42.00
25871;DHT22;13689;48.590;7.752;2022-09-13T08:47:42;32.80;41.50
25871;DHT22;13689;48.590;7.752;2022-09-13T08:53:19;33.10;41.10
25871;DHT22;13689;48.590;7.752;2022-09-13T09:00:30;34.10;39.70
25871;DHT22;13689;48.590;7.752;2022-09-13T09:05:49;34.80;38.60
25871;DHT22;13689;48.590;7.752;2022-09-13T09:11:08;33.90;39.60
25871;DHT22;13689;48.590;7.752;2022-09-13T09:13:47;34.10;39.10
25871;DHT22;13689;48.590;7.752;2022-09-13T09:18:51;33.60;39.70
25871;DHT22;13689;48.590;7.752;2022-09-13T09:21:21;34.10;39.10
25871;DHT22;13689;48.590;7.752;2022-09-13T09:23:53;34.70;38.10
25871;DHT22;13689;48.590;7.752;2022-09-13T09:26:28;35.20;37.60
25871;DHT22;13689;48.590;7.752;2022-09-13T09:28:55;35.50;37.00
25871;DHT22;13689;48.590;7.752;2022-09-13T09:33:54;36.20;36.30
25871;DHT22;13689;48.590;7.752;2022-09-13T09:36:27;36.60;35.90
25871;DHT22;13689;48.590;7.752;2022-09-13T09:38:57;36.80;35.50
25871;DHT22;13689;48.590;7.752;2022-09-13T09:41:26;37.00;35.20
25871;DHT22;13689;48.590;7.752;2022-09-13T09:46:20;38.00;34.30
25871;DHT22;13689;48.590;7.752;2022-09-13T09:48:56;38.40;33.60
25871;DHT22;13689;48.590;7.752;2022-09-13T09:51:26;38.60;33.10
25871;DHT22;13689;48.590;7.752;2022-09-13T09:53:58;37.50;31.00
25871;DHT22;13689;48.590;7.752;2022-09-13T09:56:26;36.60;31.70
25871;DHT22;13689;48.590;7.752;2022-09-13T09:58:53;35.10;32.90
25871;DHT22;13689;48.590;7.752;2022-09-13T10:01:26;34.20;34.70
25871;DHT22;13689;48.590;7.752;2022-09-13T10:04:38;34.70;34.40
25871;DHT22;13689;48.590;7.752;2022-09-13T10:06:41;35.40;33.70
25871;DHT22;13689;48.590;7.752;2022-09-13T10:14:04;37.90;31.40
25871;DHT22;13689;48.590;7.752;2022-09-13T10:16:29;38.20;31.00
25871;DHT22;13689;48.590;7.752;2022-09-13T10:19:21;37.90;31.20
25871;DHT22;13689;48.590;7.752;2022-09-13T10:21:41;37.70;31.60
25871;DHT22;13689;48.590;7.752;2022-09-13T10:24:16;37.80;31.60
25871;DHT22;13689;48.590;7.752;2022-09-13T10:26:43;37.50;31.70
25871;DHT22;13689;48.590;7.752;2022-09-13T10:29:08;37.10;32.30
25871;DHT22;13689;48.590;7.752;2022-09-13T10:31:38;36.80;32.80
25871;DHT22;13689;48.590;7.752;2022-09-13T10:36:35;35.60;33.80
25871;DHT22;13689;48.590;7.752;2022-09-13T10:39:06;34.80;34.60
25871;DHT22;13689;48.590;7.752;2022-09-13T10:41:33;34.10;35.00
25871;DHT22;13689;48.590;7.752;2022-09-13T10:44:00;33.30;35.40
25871;DHT22;13689;48.590;7.752;2022-09-13T10:46:27;32.40;36.20
25871;DHT22;13689;48.590;7.752;2022-09-13T10:48:53;31.90;36.80
25871;DHT22;13689;48.590;7.752;2022-09-13T10:53:50;31.20;37.70
25871;DHT22;13689;48.590;7.752;2022-09-13T10:56:20;31.10;37.90
25871;DHT22;13689;48.590;7.752;2022-09-13T10:58:46;31.00;38.00
25871;DHT22;13689;48.590;7.752;2022-09-13T11:01:14;30.60;38.20
25871;DHT22;13689;48.590;7.752;2022-09-13T11:06:37;29.80;39.50
25871;DHT22;13689;48.590;7.752;2022-09-13T11:09:22;29.60;40.00
25871;DHT22;13689;48.590;7.752;2022-09-13T11:30:22;28.00;45.70
25871;DHT22;13689;48.590;7.752;2022-09-13T11:33:07;27.80;46.30
25871;DHT22;13689;48.590;7.752;2022-09-13T11:51:46;27.30;47.20
25871;DHT22;13689;48.590;7.752;2022-09-13T11:54:27;27.30;47.20
25871;DHT22;13689;48.590;7.752;2022-09-13T11:57:01;27.30;47.10
25871;DHT22;13689;48.590;7.752;2022-09-13T12:01:59;27.40;47.50
25871;DHT22;13689;48.590;7.752;2022-09-13T12:04:34;27.40;47.60
25871;DHT22;13689;48.590;7.752;2022-09-13T12:07:48;27.40;47.40
25871;DHT22;13689;48.590;7.752;2022-09-13T12:09:51;27.50;47.50
25871;DHT22;13689;48.590;7.752;2022-09-13T12:12:21;27.50;47.50
25871;DHT22;13689;48.590;7.752;2022-09-13T12:17:40;27.50;47.60
25871;DHT22;13689;48.590;7.752;2022-09-13T12:20:05;27.50;47.80
25871;DHT22;13689;48.590;7.752;2022-09-13T12:22:32;27.50;48.00
25871;DHT22;13689;48.590;7.752;2022-09-13T12:24:59;27.50;48.00
25871;DHT22;13689;48.590;7.752;2022-09-13T12:27:33;27.60;47.90
25871;DHT22;13689;48.590;7.752;2022-09-13T12:32:27;27.80;46.40
25871;DHT22;13689;48.590;7.752;2022-09-13T12:42:39;28.50;45.20
25871;DHT22;13689;48.590;7.752;2022-09-13T12:52:48;28.70;44.20
25871;DHT22;13689;48.590;7.752;2022-09-13T13:00:09;28.80;43.50
25871;DHT22;13689;48.590;7.752;2022-09-13T13:05:29;28.80;43.30
25871;DHT22;13689;48.590;7.752;2022-09-13T13:07:57;28.90;42.30
25871;DHT22;13689;48.590;7.752;2022-09-13T13:10:31;28.80;42.10
25871;DHT22;13689;48.590;7.752;2022-09-13T13:13:20;28.90;42.00
25871;DHT22;13689;48.590;7.752;2022-09-13T13:18:21;28.90;41.50
25871;DHT22;13689;48.590;7.752;2022-09-13T13:21:03;28.80;41.30
25871;DHT22;13689;48.590;7.752;2022-09-13T13:23:30;28.70;41.60
25871;DHT22;13689;48.590;7.752;2022-09-13T13:29:02;28.50;42.20
25871;DHT22;13689;48.590;7.752;2022-09-13T13:33:55;28.30;42.30
25871;DHT22;13689;48.590;7.752;2022-09-13T13:36:25;28.20;42.30
25871;DHT22;13689;48.590;7.752;2022-09-13T13:38:57;28.10;42.30
25871;DHT22;13689;48.590;7.752;2022-09-13T13:43:58;27.90;42.20
25871;DHT22;13689;48.590;7.752;2022-09-13T13:46:31;27.90;42.50
25871;DHT22;13689;48.590;7.752;2022-09-13T13:49:39;27.90;42.60
25871;DHT22;13689;48.590;7.752;2022-09-13T13:51:43;28.00;43.20
25871;DHT22;13689;48.590;7.752;2022-09-13T13:54:27;28.20;42.90
25871;DHT22;13689;48.590;7.752;2022-09-13T13:56:53;28.30;43.00
25871;DHT22;13689;48.590;7.752;2022-09-13T13:59:24;28.40;43.40
25871;DHT22;13689;48.590;7.752;2022-09-13T14:01:51;28.50;43.50
25871;DHT22;13689;48.590;7.752;2022-09-13T14:07:01;28.60;43.50
25871;DHT22;13689;48.590;7.752;2022-09-13T14:09:42;28.70;43.10
25871;DHT22;13689;48.590;7.752;2022-09-13T14:19:52;28.50;42.00
25871;DHT22;13689;48.590;7.752;2022-09-13T14:24:46;28.40;42.70
25871;DHT22;13689;48.590;7.752;2022-09-13T14:27:20;28.30;43.00
25871;DHT22;13689;48.590;7.752;2022-09-13T14:29:50;28.30;43.30
25871;DHT22;13689;48.590;7.752;2022-09-13T14:32:17;28.30;43.50
25871;DHT22;13689;48.590;7.752;2022-09-13T14:34:51;28.30;43.50
25871;DHT22;13689;48.590;7.752;2022-09-13T14:37:17;28.30;43.50
25871;DHT22;13689;48.590;7.752;2022-09-13T14:39:57;28.40;43.60
25871;DHT22;13689;48.590;7.752;2022-09-13T14:42:23;28.40;43.70
25871;DHT22;13689;48.590;7.752;2022-09-13T14:44:49;28.40;43.80
25871;DHT22;13689;48.590;7.752;2022-09-13T14:49:44;28.30;43.90
25871;DHT22;13689;48.590;7.752;2022-09-13T14:52:28;28.30;44.10
25871;DHT22;13689;48.590;7.752;2022-09-13T14:54:59;28.20;44.20
25871;DHT22;13689;48.590;7.752;2022-09-13T14:57:28;28.20;44.20
25871;DHT22;13689;48.590;7.752;2022-09-13T14:59:55;28.20;44.20
25871;DHT22;13689;48.590;7.752;2022-09-13T15:02:22;28.10;44.10
25871;DHT22;13689;48.590;7.752;2022-09-13T15:04:49;28.10;44.00
25871;DHT22;13689;48.590;7.752;2022-09-13T15:07:37;28.10;43.70
25871;DHT22;13689;48.590;7.752;2022-09-13T15:12:29;28.00;43.00
25871;DHT22;13689;48.590;7.752;2022-09-13T15:20:21;27.90;42.60
25871;DHT22;13689;48.590;7.752;2022-09-13T15:22:46;27.90;42.70
25871;DHT22;13689;48.590;7.752;2022-09-13T15:25:19;27.90;42.80
25871;DHT22;13689;48.590;7.752;2022-09-13T15:27:48;27.90;42.90
25871;DHT22;13689;48.590;7.752;2022-09-13T15:30:37;27.90;42.70
25871;DHT22;13689;48.590;7.752;2022-09-13T15:35:38;27.90;42.10
25871;DHT22;13689;48.590;7.752;2022-09-13T15:38:14;27.90;42.10
25871;DHT22;13689;48.590;7.752;2022-09-13T15:40:44;28.00;42.10
25871;DHT22;13689;48.590;7.752;2022-09-13T15:43:10;28.00;42.10
25871;DHT22;13689;48.590;7.752;2022-09-13T15:45:36;28.10;42.10
25871;DHT22;13689;48.590;7.752;2022-09-13T15:48:02;28.10;42.00
25871;DHT22;13689;48.590;7.752;2022-09-13T15:50:28;28.20;41.70
25871;DHT22;13689;48.590;7.752;2022-09-13T15:52:55;28.20;41.50
25871;DHT22;13689;48.590;7.752;2022-09-13T15:55:21;28.20;41.50
25871;DHT22;13689;48.590;7.752;2022-09-13T15:57:47;28.20;41.50
25871;DHT22;13689;48.590;7.752;2022-09-13T16:00:23;28.30;41.60
25871;DHT22;13689;48.590;7.752;2022-09-13T16:02:49;28.20;41.40
25871;DHT22;13689;48.590;7.752;2022-09-13T16:05:14;28.10;41.50
25871;DHT22;13689;48.590;7.752;2022-09-13T16:07:40;28.00;41.50
25871;DHT22;13689;48.590;7.752;2022-09-13T16:10:10;27.90;41.90
25871;DHT22;13689;48.590;7.752;2022-09-13T16:12:35;27.80;42.10
25871;DHT22;13689;48.590;7.752;2022-09-13T16:15:01;27.70;42.30
25871;DHT22;13689;48.590;7.752;2022-09-13T16:17:26;27.60;42.60
25871;DHT22;13689;48.590;7.752;2022-09-13T16:19:53;27.50;42.90
25871;DHT22;13689;48.590;7.752;2022-09-13T16:22:18;27.40;43.10
25871;DHT22;13689;48.590;7.752;2022-09-13T16:24:44;27.30;43.60
25871;DHT22;13689;48.590;7.752;2022-09-13T16:27:14;27.20;44.10
25871;DHT22;13689;48.590;7.752;2022-09-13T16:29:40;27.00;44.50
25871;DHT22;13689;48.590;7.752;2022-09-13T16:32:06;26.80;45.30
25871;DHT22;13689;48.590;7.752;2022-09-13T16:34:32;26.60;46.40
25871;DHT22;13689;48.590;7.752;2022-09-13T16:36:57;26.50;47.00
25871;DHT22;13689;48.590;7.752;2022-09-13T16:39:23;26.40;47.80
25871;DHT22;13689;48.590;7.752;2022-09-13T16:41:49;26.40;48.20
25871;DHT22;13689;48.590;7.752;2022-09-13T16:44:14;26.30;48.50
25871;DHT22;13689;48.590;7.752;2022-09-13T16:46:41;26.20;48.50
25871;DHT22;13689;48.590;7.752;2022-09-13T16:49:06;26.10;48.70
25871;DHT22;13689;48.590;7.752;2022-09-13T16:51:35;26.10;48.90
25871;DHT22;13689;48.590;7.752;2022-09-13T16:54:00;26.10;49.20
25871;DHT22;13689;48.590;7.752;2022-09-13T16:56:27;26.00;49.30
25871;DHT22;13689;48.590;7.752;2022-09-13T16:58:54;26.00;49.50
25871;DHT22;13689;48.590;7.752;2022-09-13T17:01:21;25.90;49.60
25871;DHT22;13689;48.590;7.752;2022-09-13T17:03:46;25.90;49.80
25871;DHT22;13689;48.590;7.752;2022-09-13T17:06:13;25.80;49.80
25871;DHT22;13689;48.590;7.752;2022-09-13T17:08:40;25.80;50.00
25871;DHT22;13689;48.590;7.752;2022-09-13T17:11:10;25.70;50.30
25871;DHT22;13689;48.590;7.752;2022-09-13T17:13:37;25.70;50.50
25871;DHT22;13689;48.590;7.752;2022-09-13T17:16:02;25.70;50.60
25871;DHT22;13689;48.590;7.752;2022-09-13T17:18:28;25.60;50.70
25871;DHT22;13689;48.590;7.752;2022-09-13T17:20:54;25.60;50.80
25871;DHT22;13689;48.590;7.752;2022-09-13T17:23:19;25.60;50.90
25871;DHT22;13689;48.590;7.752;2022-09-13T17:25:46;25.50;51.00
25871;DHT22;13689;48.590;7.752;2022-09-13T17:28:12;25.50;51.10
25871;DHT22;13689;48.590;7.752;2022-09-13T17:30:39;25.50;51.20
25871;DHT22;13689;48.590;7.752;2022-09-13T17:33:05;25.40;51.30
25871;DHT22;13689;48.590;7.752;2022-09-13T17:35:31;25.40;51.40
25871;DHT22;13689;48.590;7.752;2022-09-13T17:37:59;25.30;52.10
25871;DHT22;13689;48.590;7.752;2022-09-13T17:40:26;25.30;51.60
25871;DHT22;13689;48.590;7.752;2022-09-13T17:42:51;25.30;51.60
25871;DHT22;13689;48.590;7.752;2022-09-13T17:45:17;25.30;51.70
25871;DHT22;13689;48.590;7.752;2022-09-13T17:47:43;25.20;51.70
25871;DHT22;13689;48.590;7.752;2022-09-13T17:50:08;25.20;51.70
25871;DHT22;13689;48.590;7.752;2022-09-13T17:52:34;25.20;51.80
25871;DHT22;13689;48.590;7.752;2022-09-13T17:55:00;25.20;51.80
25871;DHT22;13689;48.590;7.752;2022-09-13T17:57:25;25.20;51.80
25871;DHT22;13689;48.590;7.752;2022-09-13T17:59:57;25.20;51.90
25871;DHT22;13689;48.590;7.752;2022-09-13T18:02:26;25.20;51.90
25871;DHT22;13689;48.590;7.752;2022-09-13T18:04:52;25.10;51.90
25871;DHT22;13689;48.590;7.752;2022-09-13T18:07:18;25.10;51.90
25871;DHT22;13689;48.590;7.752;2022-09-13T18:09:43;25.10;52.00
25871;DHT22;13689;48.590;7.752;2022-09-13T18:12:09;25.10;52.10
25871;DHT22;13689;48.590;7.752;2022-09-13T18:14:36;25.10;52.20
25871;DHT22;13689;48.590;7.752;2022-09-13T18:17:01;25.10;52.20
25871;DHT22;13689;48.590;7.752;2022-09-13T18:19:27;25.00;52.30
25871;DHT22;13689;48.590;7.752;2022-09-13T18:21:52;25.00;52.30
25871;DHT22;13689;48.590;7.752;2022-09-13T18:24:18;25.00;52.40
25871;DHT22;13689;48.590;7.752;2022-09-13T18:26:43;25.00;52.60
25871;DHT22;13689;48.590;7.752;2022-09-13T18:29:10;25.00;52.80
25871;DHT22;13689;48.590;7.752;2022-09-13T18:31:36;25.00;52.90
25871;DHT22;13689;48.590;7.752;2022-09-13T18:34:05;24.90;53.00
25871;DHT22;13689;48.590;7.752;2022-09-13T18:36:32;24.90;53.20
25871;DHT22;13689;48.590;7.752;2022-09-13T18:38:58;24.80;53.30
25871;DHT22;13689;48.590;7.752;2022-09-13T18:41:28;24.80;53.50
25871;DHT22;13689;48.590;7.752;2022-09-13T18:43:54;24.80;53.50
25871;DHT22;13689;48.590;7.752;2022-09-13T18:46:24;24.80;53.60
25871;DHT22;13689;48.590;7.752;2022-09-13T18:48:51;24.80;53.60
25871;DHT22;13689;48.590;7.752;2022-09-13T18:51:21;24.80;53.70